Time;durP1;ratioP1;P1;durP2;ratioP2;P2;SDS_P1;SDS_P2;PMS_P1;PMS_P2;Temp;Humidity;BMP_temperature;BMP_pressure;BME280_temperature;BME280_humidity;BME280_pressure;Samples;Min_cycle;Max_cycle;Signal;HPM_P1;HPM_P2
2021/03/04 00:00:19;;;;;;;61.93;32.47;;;6.80;99.90;;;;;;5045311;28;20044;-70
2021/03/04 00:02:46;;;;;;;59.47;31.07;;;6.70;99.90;;;;;;5043997;28;20047;-70
2021/03/04 00:05:14;;;;;;;64.20;32.20;;;6.60;99.90;;;;;;5045372;28;20048;-71
2021/03/04 00:07:41;;;;;;;61.23;29.87;;;6.60;99.90;;;;;;5044690;28;20515;-70
2021/03/04 00:10:09;;;;;;;61.83;31.27;;;6.50;99.90;;;;;;5046934;28;20091;-70
2021/03/04 00:12:36;;;;;;;65.50;32.37;;;6.50;99.90;;;;;;5047106;28;20060;-70
2021/03/04 00:15:04;;;;;;;64.30;32.17;;;6.60;99.90;;;;;;5048550;28;20052;-70
2021/03/04 00:17:31;;;;;;;70.23;31.77;;;6.40;99.90;;;;;;5048009;28;20109;-70
2021/03/04 00:19:57;;;;;;;61.37;29.80;;;6.50;99.90;;;;;;5041790;28;20052;-70
2021/03/04 00:22:25;;;;;;;57.73;30.03;;;6.50;99.90;;;;;;5043798;28;20666;-70
2021/03/04 00:24:51;;;;;;;53.80;26.67;;;6.60;99.90;;;;;;5044818;28;20081;-71
2021/03/04 00:27:18;;;;;;;55.37;29.00;;;6.60;99.90;;;;;;5046445;28;20048;-70
2021/03/04 00:29:44;;;;;;;54.10;27.93;;;6.60;99.90;;;;;;5048198;28;20558;-70
2021/03/04 00:32:11;;;;;;;58.30;29.47;;;6.60;99.90;;;;;;5046639;28;20048;-70
2021/03/04 00:34:37;;;;;;;58.90;29.40;;;6.60;99.90;;;;;;5046154;28;20048;-70
2021/03/04 00:37:04;;;;;;;53.93;30.30;;;6.50;99.90;;;;;;5046958;28;20049;-71
2021/03/04 00:39:32;;;;;;;59.60;28.60;;;6.50;99.90;;;;;;5047777;28;20048;-70
2021/03/04 00:41:58;;;;;;;64.73;30.10;;;6.60;99.90;;;;;;5047523;28;20041;-70
2021/03/04 00:44:25;;;;;;;54.40;28.73;;;6.60;99.90;;;;;;5048101;28;20068;-70
2021/03/04 00:46:51;;;;;;;58.43;30.47;;;6.60;99.90;;;;;;5047256;28;20089;-70
2021/03/04 00:49:18;;;;;;;62.10;29.60;;;6.50;99.90;;;;;;5046647;28;20044;-70
2021/03/04 00:51:44;;;;;;;64.67;29.50;;;6.60;99.90;;;;;;5046599;28;20109;-70
2021/03/04 00:54:11;;;;;;;64.07;28.50;;;6.50;99.90;;;;;;5046522;28;20068;-70
2021/03/04 00:56:38;;;;;;;55.83;28.20;;;6.50;99.90;;;;;;5046424;28;20452;-70
2021/03/04 00:59:05;;;;;;;62.63;31.13;;;6.60;99.90;;;;;;5046359;28;20521;-70
2021/03/04 01:01:32;;;;;;;59.93;29.27;;;6.60;99.90;;;;;;5046216;28;20557;-70
2021/03/04 01:03:59;;;;;;;58.93;31.03;;;6.40;99.90;;;;;;5045938;28;20048;-70
2021/03/04 01:06:25;;;;;;;59.00;28.83;;;6.50;99.90;;;;;;5047235;28;20048;-70
2021/03/04 01:08:52;;;;;;;63.47;30.40;;;6.40;99.90;;;;;;5047330;28;20056;-70
2021/03/04 01:11:19;;;;;;;61.30;31.20;;;6.40;99.90;;;;;;5035484;28;20040;-71
2021/03/04 01:13:47;;;;;;;62.23;29.93;;;6.40;99.90;;;;;;5034138;28;20136;-71
2021/03/04 01:16:14;;;;;;;61.03;31.00;;;6.40;99.90;;;;;;5045920;28;20074;-70
2021/03/04 01:18:40;;;;;;;63.77;30.93;;;6.50;99.90;;;;;;5048016;28;20062;-70
2021/03/04 01:21:07;;;;;;;59.93;31.77;;;6.50;99.90;;;;;;5047316;28;20098;-70
2021/03/04 01:23:34;;;;;;;66.30;29.50;;;6.50;99.90;;;;;;5046702;28;20520;-70
2021/03/04 01:26:01;;;;;;;65.60;29.83;;;6.50;99.90;;;;;;5048742;28;20903;-70
2021/03/04 01:28:27;;;;;;;64.70;30.60;;;6.50;99.90;;;;;;5048931;28;20467;-70
2021/03/04 01:30:55;;;;;;;57.47;29.77;;;6.40;99.90;;;;;;5047254;28;20105;-70
2021/03/04 01:33:22;;;;;;;69.47;33.10;;;6.40;99.90;;;;;;5047521;28;20805;-71
2021/03/04 01:35:48;;;;;;;64.77;32.17;;;6.40;99.90;;;;;;5047655;28;20052;-70
2021/03/04 01:38:15;;;;;;;69.90;30.70;;;6.30;99.90;;;;;;5047109;28;20051;-70
2021/03/04 01:40:42;;;;;;;61.27;30.70;;;6.30;99.90;;;;;;5047588;28;20419;-70
2021/03/04 01:43:08;;;;;;;57.97;30.30;;;6.20;99.90;;;;;;5046076;28;20941;-71
2021/03/04 01:45:35;;;;;;;57.17;29.87;;;6.30;99.90;;;;;;5046536;28;20060;-70
2021/03/04 01:48:03;;;;;;;64.57;30.00;;;6.40;99.90;;;;;;5046834;28;20044;-70
2021/03/04 01:50:31;;;;;;;58.20;29.87;;;6.40;99.90;;;;;;5046823;28;20040;-70
2021/03/04 01:52:58;;;;;;;57.83;31.33;;;6.30;99.90;;;;;;5045989;28;20272;-70
2021/03/04 01:55:25;;;;;;;57.63;28.40;;;6.30;99.90;;;;;;5047920;28;20467;-70
2021/03/04 01:57:52;;;;;;;63.07;30.37;;;6.30;99.90;;;;;;5047332;28;20048;-70
2021/03/04 02:00:20;;;;;;;57.07;29.17;;;6.30;99.90;;;;;;5046489;28;20462;-71
2021/03/04 02:02:48;;;;;;;60.43;30.13;;;6.40;99.90;;;;;;5047783;28;20400;-70
2021/03/04 02:05:17;;;;;;;59.23;30.37;;;6.40;99.90;;;;;;5047060;28;20049;-70
2021/03/04 02:07:51;;;;;;;63.57;29.97;;;6.30;99.90;;;;;;5047414;28;20074;-70
2021/03/04 02:10:27;;;;;;;61.83;28.90;;;6.20;99.90;;;;;;5046762;28;20048;-70
2021/03/04 02:13:00;;;;;;;59.13;30.63;;;6.30;99.90;;;;;;5046637;28;20118;-70
2021/03/04 02:15:32;;;;;;;60.10;29.87;;;6.40;99.90;;;;;;5047344;28;20060;-70
2021/03/04 02:18:03;;;;;;;59.97;30.50;;;6.40;99.90;;;;;;5047620;28;20052;-70
2021/03/04 02:20:36;;;;;;;65.00;30.93;;;6.50;99.90;;;;;;5048061;28;20080;-70
2021/03/04 02:23:20;;;;;;;59.17;30.87;;;6.50;99.90;;;;;;5046039;28;20106;-70
2021/03/04 02:25:56;;;;;;;61.40;29.63;;;6.50;99.90;;;;;;5047536;28;20064;-71
2021/03/04 02:28:27;;;;;;;52.90;27.93;;;6.50;99.90;;;;;;5046878;28;20548;-70
2021/03/04 02:30:55;;;;;;;64.17;31.27;;;6.50;99.90;;;;;;5050591;28;20051;-70
2021/03/04 02:33:27;;;;;;;58.93;29.43;;;6.50;99.90;;;;;;5049869;28;21258;-70
2021/03/04 02:35:55;;;;;;;66.97;29.67;;;6.40;99.90;;;;;;5050692;28;20053;-70
2021/03/04 02:38:23;;;;;;;64.13;30.63;;;6.40;99.90;;;;;;5051213;28;20123;-70
2021/03/04 02:40:53;;;;;;;59.40;30.47;;;6.40;99.90;;;;;;5050650;28;20056;-70
2021/03/04 02:43:24;;;;;;;58.67;27.80;;;6.50;99.90;;;;;;5049909;28;20048;-70
2021/03/04 02:45:53;;;;;;;57.07;28.47;;;6.40;99.90;;;;;;5051388;28;20055;-70
2021/03/04 02:48:20;;;;;;;63.90;30.80;;;6.50;99.90;;;;;;5050969;28;20048;-70
2021/03/04 02:50:49;;;;;;;61.00;29.97;;;6.40;99.90;;;;;;5052176;28;20052;-70
2021/03/04 02:53:17;;;;;;;63.60;30.33;;;6.50;99.90;;;;;;5051780;28;20686;-70
2021/03/04 02:55:45;;;;;;;66.90;31.67;;;6.50;99.90;;;;;;5052175;28;20071;-70
2021/03/04 02:58:13;;;;;;;59.07;29.50;;;6.50;99.90;;;;;;5053050;28;20053;-70
2021/03/04 03:00:40;;;;;;;63.20;31.07;;;6.30;99.90;;;;;;5055127;28;20459;-70
2021/03/04 03:03:10;;;;;;;58.40;29.30;;;6.40;99.90;;;;;;5054707;28;20049;-70
2021/03/04 03:05:40;;;;;;;61.83;31.53;;;6.50;99.90;;;;;;5056152;28;20056;-70
2021/03/04 03:08:08;;;;;;;57.47;29.00;;;6.50;99.90;;;;;;5056482;28;20082;-70
2021/03/04 03:10:35;;;;;;;61.53;30.87;;;6.40;99.90;;;;;;5056692;28;20056;-70
2021/03/04 03:13:03;;;;;;;59.80;30.03;;;6.50;99.90;;;;;;5052885;28;20496;-71
2021/03/04 03:15:30;;;;;;;63.20;30.13;;;6.50;99.90;;;;;;5054074;28;20044;-70
2021/03/04 03:17:56;;;;;;;62.43;30.63;;;6.50;99.90;;;;;;5054303;28;20049;-70
2021/03/04 03:20:25;;;;;;;59.30;29.07;;;6.50;99.90;;;;;;5054567;28;20074;-70
2021/03/04 03:22:53;;;;;;;56.73;30.20;;;6.50;99.90;;;;;;5053189;28;20048;-70
2021/03/04 03:25:20;;;;;;;61.50;30.60;;;6.50;99.90;;;;;;5053964;28;20044;-71
2021/03/04 03:27:47;;;;;;;60.27;30.33;;;6.50;99.90;;;;;;5053297;28;20123;-70
2021/03/04 03:30:17;;;;;;;63.80;29.80;;;6.50;99.90;;;;;;5052873;28;20051;-70
2021/03/04 03:32:46;;;;;;;57.37;30.13;;;6.50;99.90;;;;;;5052532;28;20513;-70
2021/03/04 03:35:16;;;;;;;61.37;29.70;;;6.40;99.90;;;;;;5053300;28;20044;-70
2021/03/04 03:37:45;;;;;;;64.73;31.13;;;6.40;99.90;;;;;;5054813;28;20854;-70
2021/03/04 03:40:14;;;;;;;56.27;28.20;;;6.30;99.90;;;;;;5053998;28;20067;-70
2021/03/04 03:42:42;;;;;;;62.53;29.03;;;6.40;99.90;;;;;;5053056;28;20504;-70
2021/03/04 03:45:15;;;;;;;56.83;29.67;;;6.30;99.90;;;;;;5053443;28;20122;-70
2021/03/04 03:47:43;;;;;;;55.37;29.50;;;6.30;99.90;;;;;;5053063;28;20048;-70
2021/03/04 03:50:14;;;;;;;59.70;29.73;;;6.30;99.90;;;;;;5053500;28;20052;-70
2021/03/04 03:52:41;;;;;;;54.87;29.13;;;6.20;99.90;;;;;;5051902;28;20052;-71
2021/03/04 03:55:10;;;;;;;61.13;31.93;;;6.20;99.90;;;;;;5053781;28;20056;-70
2021/03/04 03:57:39;;;;;;;59.33;29.33;;;6.20;99.90;;;;;;5053584;28;20076;-70
2021/03/04 04:00:07;;;;;;;53.43;27.03;;;6.20;99.90;;;;;;5052938;28;20059;-70
2021/03/04 04:02:34;;;;;;;59.37;29.27;;;6.40;99.90;;;;;;5052204;28;20053;-70
2021/03/04 04:05:01;;;;;;;51.43;26.17;;;6.40;99.90;;;;;;5052953;28;20426;-70
2021/03/04 04:07:28;;;;;;;53.37;27.53;;;6.40;99.90;;;;;;5053822;28;20143;-70
2021/03/04 04:09:55;;;;;;;53.17;27.97;;;6.40;99.90;;;;;;5052071;28;20078;-70
2021/03/04 04:12:23;;;;;;;52.20;26.73;;;6.40;99.90;;;;;;5051840;28;20048;-70
2021/03/04 04:14:50;;;;;;;54.10;26.80;;;6.40;99.90;;;;;;5052729;28;20053;-70
2021/03/04 04:17:17;;;;;;;49.03;26.53;;;6.40;99.90;;;;;;5052355;28;20464;-70
2021/03/04 04:19:44;;;;;;;63.60;28.90;;;6.20;99.90;;;;;;5052269;28;20058;-70
2021/03/04 04:22:11;;;;;;;55.43;28.40;;;6.10;99.90;;;;;;5052089;28;20102;-70
2021/03/04 04:24:38;;;;;;;54.23;26.97;;;6.10;99.90;;;;;;5052189;28;20464;-70
2021/03/04 04:27:05;;;;;;;59.10;29.10;;;6.10;99.90;;;;;;5052550;28;20102;-70
2021/03/04 04:29:33;;;;;;;56.97;27.87;;;6.20;99.90;;;;;;5051920;28;20055;-70
2021/03/04 04:32:00;;;;;;;58.37;29.53;;;6.20;99.90;;;;;;5051448;28;20519;-70
2021/03/04 04:34:26;;;;;;;62.90;28.73;;;6.10;99.90;;;;;;5050074;28;20497;-70
2021/03/04 04:36:53;;;;;;;57.37;29.50;;;6.00;99.90;;;;;;5052250;28;20105;-70
2021/03/04 04:39:19;;;;;;;56.53;28.17;;;6.00;99.90;;;;;;5051377;28;20044;-70
2021/03/04 04:41:46;;;;;;;55.50;26.77;;;5.90;99.90;;;;;;5051219;28;20052;-70
2021/03/04 04:44:12;;;;;;;61.73;28.43;;;5.90;99.90;;;;;;5050628;28;20044;-70
2021/03/04 04:46:40;;;;;;;58.13;28.80;;;5.90;99.90;;;;;;5051687;28;20049;-70
2021/03/04 04:49:06;;;;;;;59.70;30.17;;;5.80;99.90;;;;;;5051246;28;20419;-70
2021/03/04 04:51:34;;;;;;;60.03;29.27;;;5.80;99.90;;;;;;5051730;28;20084;-70
2021/03/04 04:54:01;;;;;;;63.57;30.70;;;5.70;99.90;;;;;;5049832;28;20061;-70
2021/03/04 04:56:27;;;;;;;59.10;30.63;;;5.60;99.90;;;;;;5050403;28;20055;-70
2021/03/04 04:58:54;;;;;;;56.77;30.27;;;5.60;99.90;;;;;;5051342;28;20574;-70
2021/03/04 05:01:21;;;;;;;55.53;28.27;;;5.50;99.90;;;;;;5051696;28;20056;-70
2021/03/04 05:03:48;;;;;;;56.50;27.90;;;5.60;99.90;;;;;;5051140;28;20056;-70
2021/03/04 05:06:15;;;;;;;56.50;28.47;;;5.60;99.90;;;;;;5052093;28;20056;-70
2021/03/04 05:08:41;;;;;;;66.70;28.17;;;5.60;99.90;;;;;;5050944;28;20098;-70
2021/03/04 05:11:08;;;;;;;58.57;29.37;;;5.60;99.90;;;;;;5050622;28;20049;-70
2021/03/04 05:13:34;;;;;;;64.57;31.80;;;5.60;99.90;;;;;;5049926;28;20056;-70
2021/03/04 05:16:01;;;;;;;64.57;31.30;;;5.50;99.90;;;;;;5050155;28;20051;-70
2021/03/04 05:18:27;;;;;;;62.57;30.20;;;5.40;99.90;;;;;;5050554;28;20633;-70
2021/03/04 05:20:55;;;;;;;66.77;30.87;;;5.40;99.90;;;;;;5050555;28;20056;-70
2021/03/04 05:23:21;;;;;;;60.43;29.57;;;5.40;99.90;;;;;;5050612;28;20048;-70
2021/03/04 05:25:48;;;;;;;59.83;30.13;;;5.40;99.90;;;;;;5050239;28;20509;-70
2021/03/04 05:28:15;;;;;;;63.10;29.87;;;5.40;99.90;;;;;;5050120;28;20479;-70
2021/03/04 05:30:42;;;;;;;60.77;28.53;;;5.30;99.90;;;;;;5048353;28;20416;-70
2021/03/04 05:33:08;;;;;;;58.67;29.93;;;5.40;99.90;;;;;;5046146;28;20080;-70
2021/03/04 05:35:35;;;;;;;55.17;29.20;;;5.40;99.90;;;;;;5044915;28;20176;-70
2021/03/04 05:38:02;;;;;;;58.80;30.03;;;5.30;99.90;;;;;;5046114;28;21108;-70
2021/03/04 05:40:29;;;;;;;59.30;30.07;;;5.30;99.90;;;;;;5050942;28;20397;-70
2021/03/04 05:42:57;;;;;;;55.30;28.23;;;5.30;99.90;;;;;;5048010;28;20330;-70
2021/03/04 05:45:24;;;;;;;66.30;31.43;;;5.30;99.90;;;;;;5050908;28;20040;-70
2021/03/04 05:47:55;;;;;;;60.87;29.87;;;5.30;99.90;;;;;;5051406;28;20293;-70
2021/03/04 05:50:26;;;;;;;63.57;31.27;;;5.30;99.90;;;;;;5050092;28;20101;-70
2021/03/04 05:52:59;;;;;;;60.70;31.03;;;5.20;99.90;;;;;;5053209;28;20049;-70
2021/03/04 05:55:27;;;;;;;61.97;31.53;;;5.20;99.90;;;;;;5051056;28;20075;-70
2021/03/04 05:57:55;;;;;;;58.50;30.13;;;5.20;99.90;;;;;;5049862;28;20501;-70
2021/03/04 06:00:22;;;;;;;65.87;31.53;;;5.20;99.90;;;;;;5050002;28;20129;-68
2021/03/04 06:02:50;;;;;;;65.63;31.57;;;5.20;99.90;;;;;;5048961;28;20052;-67
2021/03/04 06:05:17;;;;;;;63.47;31.83;;;5.20;99.90;;;;;;5049416;28;20055;-67
2021/03/04 06:07:44;;;;;;;61.83;31.00;;;5.20;99.90;;;;;;5049671;28;20122;-68
2021/03/04 06:10:13;;;;;;;73.00;31.77;;;5.20;99.90;;;;;;5047452;28;20040;-68
2021/03/04 06:12:41;;;;;;;65.87;29.90;;;5.10;99.90;;;;;;5049277;28;20048;-68
2021/03/04 06:15:09;;;;;;;68.93;33.03;;;5.00;99.90;;;;;;5049845;28;20468;-68
2021/03/04 06:17:36;;;;;;;68.73;32.17;;;5.00;99.90;;;;;;5050545;28;20052;-68
2021/03/04 06:20:05;;;;;;;69.53;33.40;;;5.10;99.90;;;;;;5049326;28;20425;-68
2021/03/04 06:22:33;;;;;;;69.80;32.13;;;5.00;99.90;;;;;;5048436;28;20052;-68
2021/03/04 06:25:05;;;;;;;70.13;34.43;;;5.00;99.90;;;;;;5053716;28;20117;-70
2021/03/04 06:27:33;;;;;;;71.33;34.30;;;5.10;99.90;;;;;;5051667;28;20071;-70
2021/03/04 06:30:03;;;;;;;64.13;33.17;;;5.10;99.90;;;;;;5049313;28;20059;-70
2021/03/04 06:32:30;;;;;;;67.00;32.13;;;5.10;99.90;;;;;;5049452;28;20049;-70
2021/03/04 06:35:14;;;;;;;69.70;32.50;;;5.00;99.90;;;;;;5053273;28;20052;-70
2021/03/04 06:37:42;;;;;;;64.87;31.43;;;5.10;99.90;;;;;;5053593;28;20049;-70
2021/03/04 06:40:19;;;;;;;62.20;28.73;;;5.00;99.90;;;;;;5054547;28;20048;-70
2021/03/04 06:42:46;;;;;;;67.47;32.20;;;5.00;99.90;;;;;;5054611;28;20056;-70
2021/03/04 06:45:24;;;;;;;67.40;31.30;;;5.10;99.90;;;;;;5054385;28;20052;-70
2021/03/04 06:47:51;;;;;;;58.43;30.70;;;5.20;99.90;;;;;;5054324;28;20049;-70
2021/03/04 06:50:23;;;;;;;62.93;30.77;;;5.20;99.90;;;;;;5042721;28;20048;-71
2021/03/04 06:52:49;;;;;;;61.30;31.30;;;5.10;99.90;;;;;;5048763;28;20045;-70
2021/03/04 06:55:17;;;;;;;78.97;32.90;;;5.10;99.90;;;;;;5049729;28;20057;-71
2021/03/04 06:57:58;;;;;;;66.97;30.63;;;5.10;99.90;;;;;;5050385;28;20052;-70
2021/03/04 07:00:27;;;;;;;63.67;31.47;;;5.20;99.90;;;;;;5050898;28;20048;-70
2021/03/04 07:02:54;;;;;;;69.63;31.93;;;5.30;99.90;;;;;;5047909;28;20053;-70
2021/03/04 07:05:22;;;;;;;67.63;32.33;;;5.20;99.90;;;;;;5048436;28;20048;-70
2021/03/04 07:07:52;;;;;;;77.87;31.47;;;5.30;99.90;;;;;;5051074;28;20154;-70
2021/03/04 07:10:19;;;;;;;71.13;32.30;;;5.40;99.90;;;;;;5046906;28;20053;-68
2021/03/04 07:12:47;;;;;;;70.30;33.77;;;5.40;99.90;;;;;;5052695;28;20631;-68
2021/03/04 07:15:14;;;;;;;65.70;32.53;;;5.50;99.90;;;;;;5053703;28;20421;-70
2021/03/04 07:17:44;;;;;;;64.03;32.73;;;5.60;99.90;;;;;;5055064;28;20422;-69
2021/03/04 07:20:16;;;;;;;65.17;32.73;;;5.70;99.90;;;;;;5055641;28;20103;-69
2021/03/04 07:22:45;;;;;;;64.70;31.77;;;5.80;99.90;;;;;;5054864;28;20048;-69
2021/03/04 07:25:13;;;;;;;63.43;30.77;;;5.90;99.90;;;;;;5054249;28;20048;-69
2021/03/04 07:27:40;;;;;;;66.63;31.27;;;6.00;99.90;;;;;;5054606;28;20052;-68
2021/03/04 07:30:09;;;;;;;65.47;32.00;;;6.00;99.90;;;;;;5055267;28;20501;-69
2021/03/04 07:32:35;;;;;;;62.63;29.33;;;6.10;99.90;;;;;;5053421;28;21225;-69
2021/03/04 07:35:04;;;;;;;60.70;30.73;;;6.20;99.90;;;;;;5054603;28;20430;-69
2021/03/04 07:37:31;;;;;;;63.10;31.10;;;6.30;99.90;;;;;;5053933;28;20044;-69
2021/03/04 07:39:59;;;;;;;70.27;31.80;;;6.40;99.90;;;;;;5053832;28;21016;-69
2021/03/04 07:42:26;;;;;;;64.47;29.57;;;6.50;99.90;;;;;;5053560;28;20532;-70
2021/03/04 07:44:53;;;;;;;64.53;30.93;;;6.60;99.90;;;;;;5054363;28;20056;-69
2021/03/04 07:47:26;;;;;;;55.93;29.00;;;6.70;99.90;;;;;;5053921;28;20056;-70
2021/03/04 07:49:53;;;;;;;62.43;29.67;;;6.90;99.90;;;;;;5052860;28;20056;-69
2021/03/04 07:52:22;;;;;;;60.33;27.23;;;7.00;99.90;;;;;;5051214;28;20523;-69
2021/03/04 07:54:51;;;;;;;60.25;28.88;;;7.20;99.90;;;;;;5053075;28;20416;-69
2021/03/04 07:57:18;;;;;;;56.45;29.25;;;7.40;99.90;;;;;;5051491;28;20164;-69
2021/03/04 07:59:54;;;;;;;53.00;28.67;;;7.50;99.90;;;;;;5051069;28;20082;-69
2021/03/04 08:02:25;;;;;;;59.22;26.85;;;7.60;99.90;;;;;;5050917;28;20052;-69
2021/03/04 08:04:51;;;;;;;50.97;24.88;;;7.80;99.90;;;;;;5054353;28;20052;-69
2021/03/04 08:07:25;;;;;;;42.10;22.67;;;8.00;99.90;;;;;;5053863;28;20073;-70
2021/03/04 08:09:52;;;;;;;41.35;21.38;;;8.20;99.90;;;;;;5053385;28;20052;-69
2021/03/04 08:12:19;;;;;;;36.92;20.20;;;8.40;99.90;;;;;;5052360;28;20907;-67
2021/03/04 08:14:56;;;;;;;40.83;20.90;;;8.70;99.90;;;;;;5054381;28;20368;-68
2021/03/04 08:17:23;;;;;;;37.63;19.90;;;8.90;99.90;;;;;;5053729;28;20052;-71
2021/03/04 08:19:50;;;;;;;44.00;21.80;;;9.10;99.90;;;;;;5055017;28;20083;-70
2021/03/04 08:22:21;;;;;;;41.72;20.65;;;9.20;99.90;;;;;;5053705;28;20052;-69
2021/03/04 08:24:48;;;;;;;37.70;20.75;;;9.80;99.90;;;;;;5053663;28;20063;-70
2021/03/04 08:27:15;;;;;;;36.30;19.60;;;10.50;99.90;;;;;;5053967;28;20063;-70
2021/03/04 08:29:50;;;;;;;42.58;21.02;;;11.00;99.90;;;;;;5053370;28;20056;-71
2021/03/04 08:32:17;;;;;;;38.20;21.10;;;11.20;99.90;;;;;;5053182;28;20072;-72
2021/03/04 08:34:44;;;;;;;37.63;20.08;;;11.40;99.90;;;;;;5054727;28;20079;-71
2021/03/04 08:37:24;;;;;;;38.00;21.40;;;11.60;99.90;;;;;;5054202;28;20095;-70
2021/03/04 08:40:01;;;;;;;36.35;20.10;;;11.90;99.90;;;;;;5053822;28;20056;-72
2021/03/04 08:42:28;;;;;;;35.30;19.67;;;12.30;99.90;;;;;;5054704;28;20479;-73
2021/03/04 08:44:55;;;;;;;35.03;19.30;;;12.90;99.90;;;;;;5055013;28;20048;-73
2021/03/04 08:47:22;;;;;;;36.03;19.23;;;13.50;99.90;;;;;;5053973;28;20075;-73
2021/03/04 08:49:56;;;;;;;31.88;18.20;;;13.60;99.90;;;;;;5054059;28;20052;-69
2021/03/04 08:52:23;;;;;;;37.08;18.48;;;13.60;99.90;;;;;;5050212;28;20063;-72
2021/03/04 08:54:51;;;;;;;31.52;16.92;;;13.30;99.90;;;;;;5052404;28;20558;-68
2021/03/04 08:57:23;;;;;;;35.47;18.92;;;12.90;99.90;;;;;;5052041;28;20140;-67
2021/03/04 09:00:08;;;;;;;35.58;18.17;;;12.60;99.90;;;;;;5053833;28;20056;-68
2021/03/04 09:02:35;;;;;;;38.55;18.13;;;12.00;99.90;;;;;;5053138;28;20552;-66
2021/03/04 09:05:01;;;;;;;38.88;18.35;;;12.00;99.90;;;;;;5051965;28;20052;-67
2021/03/04 09:07:31;;;;;;;38.53;20.67;;;11.80;99.90;;;;;;5053650;28;20079;-69
2021/03/04 09:10:02;;;;;;;33.85;18.38;;;11.90;99.90;;;;;;5051599;28;20123;-68
2021/03/04 09:12:30;;;;;;;37.17;19.45;;;12.10;99.90;;;;;;5051136;28;20132;-67
2021/03/04 09:14:58;;;;;;;33.40;17.77;;;12.10;99.90;;;;;;5051895;28;20048;-68
2021/03/04 09:17:25;;;;;;;38.00;18.58;;;12.30;99.90;;;;;;5053161;28;20053;-68
2021/03/04 09:19:56;;;;;;;34.47;18.23;;;13.00;99.90;;;;;;5052400;28;20049;-68
2021/03/04 09:22:23;;;;;;;39.65;19.02;;;12.90;99.90;;;;;;5051616;28;20380;-67
2021/03/04 09:24:50;;;;;;;39.72;18.27;;;13.10;99.90;;;;;;5052064;28;20550;-69
2021/03/04 09:27:20;;;;;;;37.72;18.45;;;12.90;99.90;;;;;;5053377;28;20147;-66
2021/03/04 09:29:48;;;;;;;33.97;18.35;;;12.90;99.90;;;;;;5051309;28;20642;-68
2021/03/04 09:32:15;;;;;;;35.40;17.90;;;12.80;99.90;;;;;;5053147;28;20106;-69
2021/03/04 09:34:43;;;;;;;37.85;17.83;;;13.00;99.90;;;;;;5054691;28;20135;-68
2021/03/04 09:37:22;;;;;;;30.67;17.77;;;13.20;99.90;;;;;;5054721;28;20040;-69
2021/03/04 09:39:51;;;;;;;36.55;20.45;;;13.40;99.90;;;;;;5054722;28;20056;-67
2021/03/04 09:42:19;;;;;;;40.97;18.50;;;13.80;99.90;;;;;;5055205;28;20040;-67
2021/03/04 09:44:54;;;;;;;33.35;18.67;;;13.90;99.90;;;;;;5054221;28;20056;-68
2021/03/04 09:47:25;;;;;;;31.15;17.75;;;14.70;99.90;;;;;;5054722;28;20084;-67
2021/03/04 09:49:53;;;;;;;32.17;18.35;;;15.50;99.90;;;;;;5054320;28;20405;-66
2021/03/04 09:52:21;;;;;;;26.88;16.30;;;16.50;99.90;;;;;;5050841;28;20040;-71
2021/03/04 09:54:48;;;;;;;32.13;18.13;;;18.00;99.90;;;;;;5051476;28;20052;-70
2021/03/04 09:57:19;;;;;;;33.95;18.85;;;18.50;99.90;;;;;;5051765;28;20060;-77
2021/03/04 09:59:47;;;;;;;27.40;17.05;;;19.40;99.90;;;;;;5054006;28;20045;-71
2021/03/04 10:02:16;;;;;;;34.42;18.20;;;20.00;96.30;;;;;;5051395;28;20041;-72
2021/03/04 10:04:52;;;;;;;29.98;17.70;;;20.70;93.50;;;;;;5052787;28;20502;-72
2021/03/04 10:07:23;;;;;;;33.67;17.92;;;20.30;91.30;;;;;;5055338;28;20235;-74
2021/03/04 10:09:49;;;;;;;31.00;17.42;;;19.70;91.20;;;;;;5057315;28;20113;-75
2021/03/04 10:12:16;;;;;;;32.33;18.13;;;19.60;91.20;;;;;;5057948;28;21900;-72
2021/03/04 10:14:44;;;;;;;36.75;18.23;;;19.70;90.10;;;;;;5058908;28;20516;-74
2021/03/04 10:17:10;;;;;;;23.38;16.30;;;20.30;88.30;;;;;;5057575;28;20052;-74
2021/03/04 10:19:41;;;;;;;27.52;15.98;;;20.30;88.30;;;;;;5052196;28;20049;-73
2021/03/04 10:22:07;;;;;;;33.20;17.25;;;21.20;84.90;;;;;;5053340;28;20471;-71
2021/03/04 10:24:34;;;;;;;28.50;16.83;;;21.60;79.90;;;;;;5054350;28;20080;-68
2021/03/04 10:27:01;;;;;;;25.33;16.20;;;20.80;78.60;;;;;;5055786;28;20048;-69
2021/03/04 10:29:27;;;;;;;23.13;13.93;;;21.00;76.90;;;;;;5055303;28;20048;-70
2021/03/04 10:31:54;;;;;;;29.20;15.02;;;20.40;74.30;;;;;;5056028;28;20135;-70
2021/03/04 10:34:21;;;;;;;26.83;16.10;;;19.20;76.80;;;;;;5053928;28;20052;-68
2021/03/04 10:36:49;;;;;;;26.85;14.15;;;19.10;80.50;;;;;;5052159;28;20062;-70
2021/03/04 10:39:16;;;;;;;30.30;15.05;;;19.20;79.80;;;;;;5049093;28;20055;-70
2021/03/04 10:41:43;;;;;;;27.17;15.32;;;18.50;79.60;;;;;;5055709;28;20056;-70
2021/03/04 10:44:13;;;;;;;30.30;15.70;;;17.90;82.40;;;;;;5055999;28;20501;-69
2021/03/04 10:46:41;;;;;;;34.58;16.63;;;17.80;83.00;;;;;;5052563;28;20143;-70
2021/03/04 10:49:08;;;;;;;27.63;15.00;;;17.80;83.00;;;;;;5054648;28;20970;-71
2021/03/04 10:51:36;;;;;;;25.13;14.85;;;17.70;82.30;;;;;;5056108;28;20057;-68
2021/03/04 10:54:04;;;;;;;27.98;15.68;;;17.00;84.30;;;;;;5053549;28;20052;-71
2021/03/04 10:56:30;;;;;;;29.40;15.20;;;17.10;86.50;;;;;;5055749;28;20052;-71
2021/03/04 10:58:57;;;;;;;30.00;15.98;;;17.00;86.90;;;;;;5054927;28;20036;-70
2021/03/04 11:01:24;;;;;;;27.77;15.20;;;17.00;86.70;;;;;;5053457;28;20048;-69
2021/03/04 11:03:50;;;;;;;31.25;15.10;;;16.90;86.60;;;;;;5052292;28;20277;-70
2021/03/04 11:06:17;;;;;;;27.45;14.77;;;16.60;88.60;;;;;;5053000;28;20056;-69
2021/03/04 11:08:43;;;;;;;32.95;16.25;;;16.90;87.70;;;;;;5052681;28;20080;-70
2021/03/04 11:11:11;;;;;;;34.65;15.30;;;16.20;90.30;;;;;;5047438;28;20052;-70
2021/03/04 11:13:37;;;;;;;27.63;15.60;;;16.30;90.10;;;;;;5047188;28;20459;-70
2021/03/04 11:16:04;;;;;;;25.05;14.93;;;17.00;89.90;;;;;;5046674;28;20139;-69
2021/03/04 11:18:31;;;;;;;27.35;14.77;;;17.10;87.70;;;;;;5049368;28;20424;-70
2021/03/04 11:20:58;;;;;;;27.10;14.88;;;17.60;87.30;;;;;;5050805;28;20312;-70
2021/03/04 11:23:24;;;;;;;25.10;14.35;;;17.70;88.40;;;;;;5046674;28;20056;-70
2021/03/04 11:25:51;;;;;;;25.65;13.93;;;17.90;86.70;;;;;;5048171;28;20382;-70
2021/03/04 11:28:18;;;;;;;24.10;14.35;;;17.80;85.60;;;;;;5050271;28;20044;-69
2021/03/04 11:30:48;;;;;;;24.85;14.65;;;17.70;85.00;;;;;;5048653;28;20105;-70
2021/03/04 11:33:14;;;;;;;29.23;15.07;;;17.70;85.80;;;;;;5047491;28;20056;-70
2021/03/04 11:35:41;;;;;;;26.92;13.98;;;17.50;85.20;;;;;;5049250;28;20049;-70
2021/03/04 11:38:07;;;;;;;27.08;14.73;;;17.30;86.10;;;;;;5049843;28;20088;-70
2021/03/04 11:40:37;;;;;;;27.10;14.25;;;16.90;87.10;;;;;;5050278;28;20456;-70
2021/03/04 11:43:03;;;;;;;26.13;14.07;;;17.30;88.30;;;;;;5047779;28;20052;-70
2021/03/04 11:45:31;;;;;;;26.58;14.45;;;18.10;87.30;;;;;;5048512;28;20887;-70
2021/03/04 11:47:57;;;;;;;26.65;14.57;;;18.60;83.80;;;;;;5048510;28;20513;-70
2021/03/04 11:50:24;;;;;;;26.13;14.48;;;18.40;82.70;;;;;;5047475;28;20072;-70
2021/03/04 11:52:53;;;;;;;30.83;14.80;;;18.70;83.10;;;;;;5045147;28;20044;-70
2021/03/04 11:55:20;;;;;;;26.20;15.00;;;18.20;83.10;;;;;;5043661;28;20503;-72
2021/03/04 11:57:47;;;;;;;26.45;14.52;;;18.10;83.70;;;;;;5046168;28;20110;-69
2021/03/04 12:00:15;;;;;;;25.13;13.57;;;18.50;83.10;;;;;;5047451;28;20051;-70
2021/03/04 12:02:42;;;;;;;26.17;14.10;;;18.40;84.00;;;;;;5047875;28;20057;-70
2021/03/04 12:05:10;;;;;;;29.52;15.52;;;18.40;83.40;;;;;;5047378;28;20057;-70
2021/03/04 12:07:37;;;;;;;29.50;15.30;;;18.80;83.80;;;;;;5049341;28;20044;-70
2021/03/04 12:10:04;;;;;;;29.70;14.68;;;19.10;83.60;;;;;;5043990;28;20090;-70
2021/03/04 12:12:30;;;;;;;26.20;14.88;;;19.00;82.30;;;;;;5043647;28;20071;-71
2021/03/04 12:14:58;;;;;;;26.80;15.68;;;19.00;82.30;;;;;;5045972;28;20393;-70
2021/03/04 12:17:25;;;;;;;29.77;15.60;;;18.80;82.20;;;;;;5046238;28;20074;-70
2021/03/04 12:19:52;;;;;;;26.98;15.05;;;17.60;83.50;;;;;;5045134;28;20383;-69
2021/03/04 12:22:19;;;;;;;33.85;15.10;;;16.60;86.80;;;;;;5044192;28;20504;-70
2021/03/04 12:24:45;;;;;;;28.35;14.88;;;16.60;88.10;;;;;;5046197;28;20056;-70
2021/03/04 12:27:12;;;;;;;26.63;15.18;;;17.40;87.60;;;;;;5047093;28;20390;-70
2021/03/04 12:29:38;;;;;;;26.58;14.55;;;17.70;86.10;;;;;;5043959;28;20620;-69
2021/03/04 12:32:05;;;;;;;27.73;14.88;;;17.20;86.80;;;;;;5043343;28;20463;-69
2021/03/04 12:34:32;;;;;;;31.92;15.65;;;16.70;88.00;;;;;;5043804;28;20075;-70
2021/03/04 12:37:03;;;;;;;27.40;15.32;;;17.00;89.20;;;;;;5043754;28;20107;-70